createdAt,value
2023-03-02T00:04:12.118Z,6
2023-03-02T00:09:28.411Z,4
2023-03-02T00:14:44.798Z,3
2023-03-02T00:20:01.169Z,5
2023-03-02T00:25:17.559Z,3
2023-03-02T00:30:33.939Z,2
2023-03-02T00:35:50.317Z,2
2023-03-02T00:41:07.025Z,3
2023-03-02T00:46:23.141Z,16
2023-03-02T00:51:39.466Z,8
2023-03-02T00:56:55.855Z,3
2023-03-02T01:02:12.239Z,3
2023-03-02T01:07:28.687Z,6
2023-03-02T01:12:44.974Z,1
2023-03-02T01:18:01.322Z,2
2023-03-02T01:23:17.734Z,3
2023-03-02T01:28:34.097Z,3
2023-03-02T01:33:50.456Z,2
2023-03-02T01:39:06.850Z,5
2023-03-02T01:44:23.211Z,5
2023-03-02T01:49:39.583Z,4
2023-03-02T01:54:55.989Z,2
2023-03-02T02:00:12.359Z,4
2023-03-02T02:05:28.714Z,4
2023-03-02T02:10:45.087Z,5
2023-03-02T02:16:01.495Z,4
2023-03-02T02:21:17.840Z,2
2023-03-02T02:26:34.733Z,3
2023-03-02T02:31:50.777Z,3
2023-03-02T02:37:06.983Z,2
2023-03-02T02:42:23.376Z,3
2023-03-02T02:47:39.793Z,16
2023-03-02T02:53:17.967Z,5
2023-03-02T02:58:34.327Z,4
2023-03-02T03:03:50.719Z,4
2023-03-02T03:09:07.066Z,4
2023-03-02T03:14:23.473Z,4
2023-03-02T03:19:39.834Z,4
2023-03-02T03:24:56.217Z,4
2023-03-02T03:30:12.603Z,4
2023-03-02T03:35:29.011Z,4
2023-03-02T03:40:45.354Z,8
2023-03-02T03:46:02.029Z,4
2023-03-02T03:51:18.098Z,4
2023-03-02T03:56:34.716Z,4
2023-03-02T04:01:50.920Z,6
2023-03-02T04:07:07.238Z,6
2023-03-02T04:12:23.653Z,5
2023-03-02T04:17:40.004Z,5
2023-03-02T04:22:56.374Z,5
2023-03-02T04:28:12.767Z,4
2023-03-02T04:33:29.128Z,5
2023-03-02T04:38:45.514Z,4
2023-03-02T04:44:01.915Z,6
2023-03-02T04:49:18.272Z,6
2023-03-02T04:54:34.640Z,6
2023-03-02T04:59:51.060Z,7
2023-03-02T05:05:07.422Z,6
2023-03-02T05:10:23.830Z,8
2023-03-02T05:15:40.212Z,9
2023-03-02T05:20:56.580Z,10
2023-03-02T05:26:12.966Z,9
2023-03-02T05:31:29.380Z,5
2023-03-02T05:36:45.692Z,9
2023-03-02T05:42:02.110Z,9
2023-03-02T05:47:18.458Z,11
2023-03-02T05:52:34.849Z,13
2023-03-02T05:57:51.280Z,19
2023-03-02T06:03:07.667Z,10
2023-03-02T06:08:23.977Z,9
2023-03-02T06:13:40.403Z,24
2023-03-02T06:18:56.792Z,29
2023-03-02T06:24:13.182Z,34
2023-03-02T06:29:29.674Z,21
2023-03-02T06:34:46.040Z,19
2023-03-02T06:40:02.513Z,24
2023-03-02T06:45:18.849Z,19
2023-03-02T06:50:35.236Z,22
2023-03-02T06:55:51.667Z,28
2023-03-02T07:01:08.323Z,28
2023-03-02T07:06:24.615Z,22
2023-03-02T07:11:41.035Z,9
2023-03-02T07:16:57.544Z,5
2023-03-02T07:22:13.762Z,5
2023-03-02T07:27:30.167Z,9
2023-03-02T07:32:46.566Z,6
2023-03-02T07:38:02.907Z,6
2023-03-02T07:43:19.342Z,6
2023-03-02T07:48:35.662Z,6
2023-03-02T07:53:52.045Z,6
2023-03-02T07:59:08.450Z,5
2023-03-02T08:04:24.797Z,5
2023-03-02T08:09:41.211Z,5
2023-03-02T08:14:57.596Z,6
2023-03-02T08:20:13.955Z,3
2023-03-02T08:25:30.357Z,7
2023-03-02T08:30:46.714Z,3
2023-03-02T08:36:03.133Z,3
2023-03-02T08:41:20.105Z,20
2023-03-02T08:46:36.364Z,4
2023-03-02T08:51:52.946Z,3
2023-03-02T08:57:09.118Z,6
2023-03-02T09:02:25.460Z,3
2023-03-02T09:07:41.837Z,4
2023-03-02T09:12:58.228Z,4
2023-03-02T09:18:14.529Z,7
2023-03-02T09:23:30.945Z,3
2023-03-02T09:28:47.314Z,4
2023-03-02T09:34:04.224Z,3
2023-03-02T09:39:20.548Z,3
2023-03-02T09:44:36.944Z,4
2023-03-02T09:49:53.295Z,3
2023-03-02T09:55:09.659Z,3
2023-03-02T10:00:26.161Z,7
2023-03-02T10:05:42.381Z,3
2023-03-02T10:10:58.748Z,4
2023-03-02T10:16:15.155Z,4
2023-03-02T10:21:31.476Z,3
2023-03-02T10:26:47.847Z,2
2023-03-02T10:32:04.251Z,5
2023-03-02T10:37:20.555Z,4
2023-03-02T10:42:36.960Z,4
2023-03-02T10:47:53.280Z,4
2023-03-02T10:53:09.769Z,10
2023-03-02T10:58:26.249Z,4
2023-03-02T11:03:42.537Z,5
2023-03-02T11:08:58.848Z,5
2023-03-02T11:14:15.236Z,7
2023-03-02T11:19:31.594Z,7
2023-03-02T11:24:47.949Z,7
2023-03-02T11:30:04.374Z,5
2023-03-02T11:35:22.724Z,5
2023-03-02T11:40:37.042Z,7
2023-03-02T11:45:53.411Z,8
2023-03-02T11:51:09.757Z,6
2023-03-02T11:56:26.112Z,5
2023-03-02T12:01:42.505Z,5
2023-03-02T12:06:58.778Z,6
2023-03-02T12:12:15.161Z,5
2023-03-02T12:17:31.501Z,6
2023-03-02T12:22:47.848Z,6
2023-03-02T12:28:04.189Z,8
2023-03-02T12:33:20.597Z,7
2023-03-02T12:38:36.962Z,9
2023-03-02T12:43:53.868Z,19
2023-03-02T12:49:11.318Z,8
2023-03-02T12:54:26.468Z,6
2023-03-02T12:59:42.845Z,6
2023-03-02T13:04:59.761Z,7
2023-03-02T13:10:16.156Z,6
2023-03-02T13:15:32.454Z,5
2023-03-02T13:20:48.757Z,8
2023-03-02T13:26:05.116Z,5
2023-03-02T13:31:21.634Z,6
2023-03-02T13:36:38.449Z,7
2023-03-02T13:41:54.833Z,7
2023-03-02T13:47:11.168Z,5
2023-03-02T13:52:27.510Z,8
2023-03-02T13:57:43.867Z,6
2023-03-02T14:03:00.238Z,7
2023-03-02T14:08:16.552Z,9
2023-03-02T14:13:32.958Z,9
2023-03-02T14:18:49.315Z,7
2023-03-02T14:24:05.698Z,8
2023-03-02T14:29:22.048Z,8
2023-03-02T14:34:38.371Z,10
2023-03-02T14:39:55.532Z,8
2023-03-02T14:45:11.137Z,11
2023-03-02T14:50:27.431Z,8
2023-03-02T14:55:43.792Z,8
2023-03-02T15:01:00.216Z,8
2023-03-02T15:06:16.641Z,12
2023-03-02T15:11:33.175Z,8
2023-03-02T15:16:49.318Z,9
2023-03-02T15:22:05.636Z,12
2023-03-02T15:27:22.044Z,10
2023-03-02T15:32:38.452Z,9
2023-03-02T15:37:54.794Z,12
2023-03-02T15:43:11.192Z,11
2023-03-02T15:48:27.542Z,9
2023-03-02T15:53:43.989Z,12
2023-03-02T15:59:00.368Z,10
2023-03-02T16:04:16.676Z,8
2023-03-02T16:09:33.069Z,12
2023-03-02T16:14:49.464Z,12
2023-03-02T16:20:05.831Z,9
2023-03-02T16:25:22.227Z,12
2023-03-02T16:30:38.606Z,10
2023-03-02T16:35:54.954Z,12
2023-03-02T16:41:11.377Z,16
2023-03-02T16:46:27.765Z,15
2023-03-02T16:51:44.146Z,16
2023-03-02T16:57:00.542Z,16
2023-03-02T17:02:16.928Z,16
2023-03-02T17:07:33.324Z,15
2023-03-02T17:12:49.751Z,13
2023-03-02T17:18:06.095Z,16
2023-03-02T17:23:22.466Z,16
2023-03-02T17:28:38.845Z,15
2023-03-02T17:33:55.235Z,14
2023-03-02T17:39:11.596Z,16
2023-03-02T17:44:28.566Z,18
2023-03-02T17:49:44.940Z,17
2023-03-02T17:55:01.326Z,21
2023-03-02T18:00:17.740Z,18
2023-03-02T18:05:33.815Z,18
2023-03-02T18:10:50.214Z,18
2023-03-02T18:16:06.679Z,15
2023-03-02T18:21:23.026Z,18
2023-03-02T18:26:39.416Z,15
2023-03-02T18:31:55.581Z,19
2023-03-02T18:37:11.893Z,14
2023-03-02T18:42:28.305Z,17
2023-03-02T18:47:46.148Z,17
2023-03-02T18:53:01.083Z,16
2023-03-02T18:58:17.465Z,15
2023-03-02T19:03:35.320Z,14
2023-03-02T19:08:50.230Z,17
2023-03-02T19:14:06.617Z,16
2023-03-02T19:19:23.060Z,15
2023-03-02T19:24:39.912Z,14
2023-03-02T19:29:56.345Z,16
2023-03-02T19:35:12.719Z,13
2023-03-02T19:40:29.468Z,22
2023-03-02T19:45:45.627Z,23
2023-03-02T19:51:01.999Z,21
2023-03-02T19:56:18.342Z,19
2023-03-02T20:01:34.867Z,19
2023-03-02T20:06:51.133Z,19
2023-03-02T20:12:07.487Z,11
2023-03-02T20:17:23.894Z,12
2023-03-02T20:22:40.236Z,16
2023-03-02T20:27:56.634Z,15
2023-03-02T20:33:13.035Z,14
2023-03-02T20:38:29.509Z,10
2023-03-02T20:43:45.765Z,16
2023-03-02T20:49:02.182Z,15
2023-03-02T20:54:18.524Z,16
2023-03-02T20:59:34.940Z,17
2023-03-02T21:04:51.478Z,13
2023-03-02T21:10:07.679Z,15
2023-03-02T21:15:24.155Z,17
2023-03-02T21:20:40.552Z,12
2023-03-02T21:25:56.931Z,16
2023-03-02T21:31:13.329Z,13
2023-03-02T21:36:29.680Z,21
2023-03-02T21:41:46.076Z,25
2023-03-02T21:47:02.952Z,15
2023-03-02T21:52:19.315Z,10
2023-03-02T21:57:35.685Z,15
2023-03-02T22:02:52.100Z,18
2023-03-02T22:08:08.484Z,26
2023-03-02T22:13:25.424Z,32
2023-03-02T22:18:41.840Z,32
2023-03-02T22:23:58.725Z,26
2023-03-02T22:29:15.123Z,30
2023-03-02T22:34:31.288Z,40
2023-03-02T22:39:47.688Z,35
2023-03-02T22:45:04.104Z,22
2023-03-02T22:50:20.554Z,19
2023-03-02T22:55:36.905Z,14
2023-03-02T23:00:53.328Z,18
2023-03-02T23:06:10.042Z,14
2023-03-02T23:11:26.110Z,20
2023-03-02T23:16:42.588Z,23
2023-03-02T23:21:58.926Z,27
2023-03-02T23:27:15.289Z,26
2023-03-02T23:32:31.746Z,33
2023-03-02T23:37:48.132Z,27
2023-03-02T23:43:04.524Z,22
2023-03-02T23:48:20.918Z,16
2023-03-02T23:53:37.371Z,18
2023-03-02T23:58:53.706Z,18
